Time;durP1;ratioP1;P1;durP2;ratioP2;P2;SDS_P1;SDS_P2;PMS_P1;PMS_P2;Temp;Humidity;BMP_temperature;BMP_pressure;BME280_temperature;BME280_humidity;BME280_pressure;Samples;Min_cycle;Max_cycle;Signal;HPM_P1;HPM_P2
2022/05/23 00:02:00;;;;;;;7.43;2.33;;;;;;;;;;5061323;28;20036;-59
2022/05/23 00:04:26;;;;;;;5.83;2.10;;;;;;;;;;5059272;28;20051;-59
2022/05/23 00:06:53;;;;;;;7.53;2.77;;;;;;;;;;5056241;28;20044;-59
2022/05/23 00:09:19;;;;;;;8.67;2.73;;;;;;;;;;5057823;28;20095;-59
2022/05/23 00:11:45;;;;;;;8.13;2.33;;;;;;;;;;5060804;28;20049;-59
2022/05/23 00:14:11;;;;;;;8.07;2.70;;;;;;;;;;5060302;28;20123;-59
2022/05/23 00:16:40;;;;;;;7.50;2.33;;;;;;;;;;5060615;28;20048;-59
2022/05/23 00:19:09;;;;;;;4.63;1.77;;;;;;;;;;5060589;28;20071;-59
2022/05/23 00:21:35;;;;;;;7.43;2.37;;;;;;;;;;5061035;28;20064;-59
2022/05/23 00:24:01;;;;;;;6.37;2.13;;;;;;;;;;5058272;28;20123;-59
2022/05/23 00:26:27;;;;;;;7.83;2.27;;;;;;;;;;5055408;28;20037;-59
2022/05/23 00:28:53;;;;;;;5.70;2.20;;;;;;;;;;5059789;28;20043;-59
2022/05/23 00:31:19;;;;;;;6.77;2.17;;;;;;;;;;5060880;28;20045;-59
2022/05/23 00:36:31;;;;;;;6.00;2.00;;;;;;;;;;5059872;28;20045;-59
2022/05/23 00:38:57;;;;;;;8.93;2.47;;;;;;;;;;5058358;28;20049;-60
2022/05/23 00:44:21;;;;;;;6.50;2.60;;;;;;;;;;5057992;28;20491;-59
2022/05/23 00:46:55;;;;;;;6.77;2.10;;;;;;;;;;5061831;28;20060;-59
2022/05/23 00:49:22;;;;;;;6.33;2.40;;;;;;;;;;5057416;28;20048;-59
2022/05/23 00:51:48;;;;;;;9.80;2.73;;;;;;;;;;5057936;28;20078;-59
2022/05/23 00:54:15;;;;;;;10.13;2.10;;;;;;;;;;5060598;28;20606;-59
2022/05/23 00:56:43;;;;;;;6.87;2.00;;;;;;;;;;5058507;28;20499;-59
2022/05/23 00:59:10;;;;;;;5.30;2.63;;;;;;;;;;5062421;28;20391;-59
2022/05/23 01:01:37;;;;;;;7.37;2.30;;;;;;;;;;5067701;28;20091;-59
2022/05/23 01:04:05;;;;;;;5.40;2.30;;;;;;;;;;5052651;28;20045;-59
2022/05/23 01:06:32;;;;;;;8.50;2.60;;;;;;;;;;5058340;28;20090;-60
2022/05/23 01:08:58;;;;;;;6.83;2.30;;;;;;;;;;5051525;28;20495;-60
2022/05/23 01:11:24;;;;;;;5.63;2.10;;;;;;;;;;5048795;28;20804;-59
2022/05/23 01:13:53;;;;;;;3.77;2.00;;;;;;;;;;5056966;28;20044;-59
2022/05/23 01:16:20;;;;;;;5.47;2.23;;;;;;;;;;5059543;28;20127;-59
2022/05/23 01:18:46;;;;;;;4.63;1.90;;;;;;;;;;5056765;28;20041;-59
2022/05/23 01:21:15;;;;;;;5.43;2.00;;;;;;;;;;5057901;28;20124;-60
2022/05/23 01:23:41;;;;;;;5.50;1.70;;;;;;;;;;5057353;28;20123;-59
2022/05/23 01:26:07;;;;;;;6.77;2.10;;;;;;;;;;5054114;28;20143;-59
2022/05/23 01:28:40;;;;;;;5.63;1.90;;;;;;;;;;5059868;28;20434;-59
2022/05/23 01:31:07;;;;;;;4.28;1.77;;;;;;;;;;5059447;28;20047;-60
2022/05/23 01:33:33;;;;;;;7.93;1.63;;;;;;;;;;5055256;28;20080;-59
2022/05/23 01:35:59;;;;;;;5.00;2.10;;;;;;;;;;5059894;28;20088;-59
2022/05/23 01:38:26;;;;;;;5.93;2.03;;;;;;;;;;5057496;28;20048;-59
2022/05/23 01:40:52;;;;;;;6.17;2.33;;;;;;;;;;5057763;28;20475;-59
2022/05/23 01:43:18;;;;;;;4.20;1.97;;;;;;;;;;5050898;28;20041;-59
2022/05/23 01:45:44;;;;;;;5.13;1.90;;;;;;;;;;5059767;28;20052;-59
2022/05/23 01:48:10;;;;;;;3.87;1.90;;;;;;;;;;5063992;28;20472;-59
2022/05/23 01:50:36;;;;;;;5.13;2.10;;;;;;;;;;5055603;28;20539;-60
2022/05/23 01:53:03;;;;;;;5.90;2.00;;;;;;;;;;5056524;28;20051;-59
2022/05/23 01:55:29;;;;;;;4.17;1.83;;;;;;;;;;5059710;28;20076;-59
2022/05/23 01:57:55;;;;;;;6.33;2.40;;;;;;;;;;5055840;28;20041;-59
2022/05/23 02:03:06;;;;;;;6.93;2.00;;;;;;;;;;5057259;28;20124;-59
2022/05/23 02:05:33;;;;;;;4.57;2.07;;;;;;;;;;5054969;28;20091;-59
2022/05/23 02:07:59;;;;;;;3.67;1.70;;;;;;;;;;5058139;28;20072;-59
2022/05/23 02:10:26;;;;;;;7.30;2.10;;;;;;;;;;5053820;28;20412;-59
2022/05/23 02:12:53;;;;;;;6.57;2.07;;;;;;;;;;5055916;28;20419;-59
2022/05/23 02:15:19;;;;;;;5.23;2.80;;;;;;;;;;5056059;28;20033;-59
2022/05/23 02:17:46;;;;;;;6.23;2.00;;;;;;;;;;5057678;28;20049;-60
2022/05/23 02:20:12;;;;;;;5.50;2.10;;;;;;;;;;5058563;28;20049;-59
2022/05/23 02:22:39;;;;;;;7.07;2.20;;;;;;;;;;5055503;28;20055;-60
2022/05/23 02:25:05;;;;;;;9.80;2.27;;;;;;;;;;5057170;28;20040;-59
2022/05/23 02:27:32;;;;;;;4.77;1.97;;;;;;;;;;5056087;28;20048;-59
2022/05/23 02:29:58;;;;;;;5.20;2.20;;;;;;;;;;5057869;28;20491;-59
2022/05/23 02:32:24;;;;;;;4.90;1.83;;;;;;;;;;5057188;28;20032;-59
2022/05/23 02:34:50;;;;;;;4.90;1.73;;;;;;;;;;5057508;28;20036;-60
2022/05/23 02:37:16;;;;;;;6.17;2.10;;;;;;;;;;5057879;28;20033;-60
2022/05/23 02:39:42;;;;;;;5.60;2.00;;;;;;;;;;5056473;28;20049;-59
2022/05/23 02:42:09;;;;;;;5.10;1.90;;;;;;;;;;5054416;28;20049;-59
2022/05/23 02:44:35;;;;;;;7.20;2.27;;;;;;;;;;5055009;28;20056;-59
2022/05/23 02:47:02;;;;;;;4.60;1.70;;;;;;;;;;5055572;28;20048;-60
2022/05/23 02:49:28;;;;;;;6.90;2.10;;;;;;;;;;5055443;28;20040;-59
2022/05/23 02:51:54;;;;;;;8.97;2.53;;;;;;;;;;5052660;28;20527;-59
2022/05/23 02:54:20;;;;;;;4.87;2.20;;;;;;;;;;5054960;28;20041;-59
2022/05/23 02:56:46;;;;;;;5.43;1.80;;;;;;;;;;5057879;28;20036;-59
2022/05/23 02:59:13;;;;;;;3.67;1.97;;;;;;;;;;5058051;28;20095;-59
2022/05/23 03:04:24;;;;;;;6.30;2.00;;;;;;;;;;5059813;28;20037;-59
2022/05/23 03:06:50;;;;;;;4.57;2.30;;;;;;;;;;5060253;28;20114;-59
2022/05/23 03:09:17;;;;;;;5.40;2.30;;;;;;;;;;5056251;28;20056;-59
2022/05/23 03:11:43;;;;;;;5.93;2.07;;;;;;;;;;5055167;28;20048;-59
2022/05/23 03:14:09;;;;;;;7.63;2.03;;;;;;;;;;5063995;28;20049;-59
2022/05/23 03:16:35;;;;;;;5.53;2.13;;;;;;;;;;5048164;28;20041;-59
2022/05/23 03:19:01;;;;;;;9.97;2.20;;;;;;;;;;5047583;28;20038;-60
2022/05/23 03:27:00;;;;;;;5.10;1.80;;;;;;;;;;5048590;28;20049;-60
2022/05/23 03:29:26;;;;;;;6.90;2.10;;;;;;;;;;5051379;28;20068;-59
2022/05/23 03:31:52;;;;;;;11.90;2.50;;;;;;;;;;5063015;28;20453;-59
2022/05/23 03:34:19;;;;;;;5.33;2.30;;;;;;;;;;5049630;28;20103;-60
2022/05/23 03:36:45;;;;;;;5.63;2.10;;;;;;;;;;5064746;28;20045;-60
2022/05/23 03:39:11;;;;;;;7.37;2.40;;;;;;;;;;5070310;28;20044;-59
2022/05/23 03:41:38;;;;;;;5.40;2.20;;;;;;;;;;5070960;28;20052;-59
2022/05/23 03:44:05;;;;;;;4.90;1.93;;;;;;;;;;5055187;28;20045;-60
2022/05/23 03:46:32;;;;;;;6.43;2.67;;;;;;;;;;5051500;28;20052;-59
2022/05/23 03:48:58;;;;;;;7.00;2.30;;;;;;;;;;5059456;28;20051;-59
2022/05/23 03:51:24;;;;;;;5.80;2.60;;;;;;;;;;5067181;28;20032;-60
2022/05/23 03:53:50;;;;;;;6.90;3.00;;;;;;;;;;5057169;28;20040;-59
2022/05/23 03:56:16;;;;;;;5.20;2.27;;;;;;;;;;5054719;28;20040;-59
2022/05/23 03:58:42;;;;;;;5.33;2.57;;;;;;;;;;5054882;28;20136;-59
2022/05/23 04:01:10;;;;;;;7.43;2.60;;;;;;;;;;5069077;28;20107;-59
2022/05/23 04:03:39;;;;;;;7.77;2.27;;;;;;;;;;5050966;28;20044;-60
2022/05/23 04:06:05;;;;;;;6.50;2.70;;;;;;;;;;5059594;28;20051;-59
2022/05/23 04:08:31;;;;;;;4.60;2.20;;;;;;;;;;5060256;28;20060;-59
2022/05/23 04:10:57;;;;;;;6.73;2.70;;;;;;;;;;5065750;28;20037;-59
2022/05/23 04:13:23;;;;;;;5.43;2.60;;;;;;;;;;5058906;28;20043;-59
2022/05/23 04:15:50;;;;;;;7.03;2.53;;;;;;;;;;5063847;28;20502;-59
2022/05/23 04:18:17;;;;;;;5.47;2.87;;;;;;;;;;5060452;28;20040;-59
2022/05/23 04:20:43;;;;;;;9.73;3.00;;;;;;;;;;5059271;28;20123;-59
2022/05/23 04:23:09;;;;;;;8.33;3.47;;;;;;;;;;5062551;28;20052;-59
2022/05/23 04:25:39;;;;;;;7.67;3.27;;;;;;;;;;5057050;28;20045;-59
2022/05/23 04:28:05;;;;;;;6.63;2.97;;;;;;;;;;5050697;28;20068;-59
2022/05/23 04:30:31;;;;;;;7.00;3.03;;;;;;;;;;5058581;28;20533;-59
2022/05/23 04:35:42;;;;;;;6.97;3.00;;;;;;;;;;5050586;28;20389;-59
2022/05/23 04:38:08;;;;;;;8.77;3.07;;;;;;;;;;5049976;28;20048;-59
2022/05/23 04:40:34;;;;;;;8.97;2.97;;;;;;;;;;5048533;28;20057;-59
2022/05/23 04:43:01;;;;;;;7.27;2.60;;;;;;;;;;5048700;28;20056;-59
2022/05/23 04:45:27;;;;;;;9.47;3.20;;;;;;;;;;5048740;28;20071;-59
2022/05/23 04:50:38;;;;;;;7.97;3.10;;;;;;;;;;5048946;28;20088;-59
2022/05/23 04:53:04;;;;;;;6.70;3.17;;;;;;;;;;5049493;28;20142;-59
2022/05/23 04:55:30;;;;;;;6.70;3.37;;;;;;;;;;5050081;28;20155;-59
2022/05/23 04:57:59;;;;;;;7.27;3.13;;;;;;;;;;5049421;28;20049;-59
2022/05/23 05:00:26;;;;;;;5.10;3.13;;;;;;;;;;5063138;28;20044;-59
2022/05/23 05:02:52;;;;;;;9.10;3.70;;;;;;;;;;5061044;28;20041;-59
2022/05/23 05:05:19;;;;;;;10.33;3.80;;;;;;;;;;5066890;28;20048;-59
2022/05/23 05:07:45;;;;;;;9.10;3.10;;;;;;;;;;5068682;28;20037;-59
2022/05/23 05:10:12;;;;;;;6.73;3.50;;;;;;;;;;5061249;28;20040;-59
2022/05/23 05:12:38;;;;;;;6.67;3.07;;;;;;;;;;5068916;28;20048;-59
2022/05/23 05:15:04;;;;;;;10.63;3.60;;;;;;;;;;5049027;28;20132;-60
2022/05/23 05:17:30;;;;;;;6.90;3.57;;;;;;;;;;5049193;28;20419;-59
2022/05/23 05:19:56;;;;;;;10.33;3.70;;;;;;;;;;5047655;28;20036;-59
2022/05/23 05:22:22;;;;;;;9.23;3.10;;;;;;;;;;5053023;28;20040;-59
2022/05/23 05:24:48;;;;;;;9.50;3.20;;;;;;;;;;5052780;28;20510;-59
2022/05/23 05:27:14;;;;;;;7.40;3.30;;;;;;;;;;5048911;28;20056;-59
2022/05/23 05:29:41;;;;;;;5.37;2.93;;;;;;;;;;5052753;28;20053;-60
2022/05/23 05:32:09;;;;;;;7.60;3.37;;;;;;;;;;5065849;28;20053;-59
2022/05/23 05:34:44;;;;;;;7.53;3.20;;;;;;;;;;5054920;28;20041;-60
2022/05/23 05:37:13;;;;;;;8.13;3.50;;;;;;;;;;5068903;28;20075;-60
2022/05/23 05:39:39;;;;;;;5.87;3.10;;;;;;;;;;5068418;28;20123;-60
2022/05/23 05:42:09;;;;;;;7.97;3.60;;;;;;;;;;5069344;28;20087;-60
2022/05/23 05:44:37;;;;;;;8.97;3.77;;;;;;;;;;5066455;28;20183;-60
2022/05/23 05:47:07;;;;;;;6.50;3.10;;;;;;;;;;5048532;28;20364;-59
2022/05/23 05:49:35;;;;;;;7.43;3.40;;;;;;;;;;5048713;28;20049;-60
2022/05/23 05:52:03;;;;;;;8.30;3.53;;;;;;;;;;5047775;28;20052;-59
2022/05/23 05:54:30;;;;;;;7.80;3.00;;;;;;;;;;5064201;28;20040;-60
2022/05/23 05:56:56;;;;;;;10.13;3.30;;;;;;;;;;5055507;28;20041;-60
2022/05/23 05:59:22;;;;;;;11.77;3.57;;;;;;;;;;5047769;28;20064;-59
2022/05/23 06:01:48;;;;;;;9.60;3.80;;;;;;;;;;5068045;28;20072;-59
2022/05/23 06:04:14;;;;;;;9.10;3.57;;;;;;;;;;5051390;28;20548;-60
2022/05/23 06:12:10;;;;;;;10.53;3.63;;;;;;;;;;5048185;28;20084;-60
2022/05/23 06:14:36;;;;;;;6.80;3.77;;;;;;;;;;5055530;28;20041;-60
2022/05/23 06:17:02;;;;;;;6.73;3.90;;;;;;;;;;5052234;28;20040;-60
2022/05/23 06:19:28;;;;;;;5.97;3.40;;;;;;;;;;5042227;28;20052;-60
2022/05/23 06:21:54;;;;;;;8.87;3.73;;;;;;;;;;5048013;28;20041;-60
2022/05/23 06:24:20;;;;;;;8.53;4.47;;;;;;;;;;5055765;28;20495;-59
2022/05/23 06:26:46;;;;;;;7.53;3.90;;;;;;;;;;5048070;28;20107;-60
2022/05/23 06:29:12;;;;;;;6.43;3.27;;;;;;;;;;5048334;28;20095;-60
2022/05/23 06:31:40;;;;;;;9.27;3.60;;;;;;;;;;5048085;28;20048;-60
2022/05/23 06:34:06;;;;;;;8.53;3.60;;;;;;;;;;5056753;28;20052;-60
2022/05/23 06:36:32;;;;;;;8.53;4.53;;;;;;;;;;5052031;28;20472;-59
2022/05/23 06:38:58;;;;;;;6.67;3.60;;;;;;;;;;5055449;28;20052;-59
2022/05/23 06:41:24;;;;;;;6.20;3.00;;;;;;;;;;5061716;28;20544;-59
2022/05/23 06:43:50;;;;;;;8.73;3.13;;;;;;;;;;5049705;28;20148;-59
2022/05/23 06:46:16;;;;;;;7.37;3.83;;;;;;;;;;5049143;28;20399;-59
2022/05/23 06:48:42;;;;;;;7.93;4.00;;;;;;;;;;5050392;28;20098;-59
2022/05/23 06:51:09;;;;;;;15.30;3.60;;;;;;;;;;5051012;28;20037;-58
2022/05/23 06:53:35;;;;;;;6.17;3.67;;;;;;;;;;5058105;28;20049;-59
2022/05/23 06:56:01;;;;;;;8.67;4.60;;;;;;;;;;5054706;28;20051;-59
2022/05/23 06:58:27;;;;;;;10.37;3.97;;;;;;;;;;5048153;28;20060;-59
2022/05/23 07:00:54;;;;;;;6.63;3.20;;;;;;;;;;5065656;28;20044;-59
2022/05/23 07:03:21;;;;;;;6.27;3.33;;;;;;;;;;5052164;28;20056;-58
2022/05/23 07:14:02;;;;;;;8.67;3.90;;;;;;;;;;5061827;28;20044;-59
2022/05/23 07:16:28;;;;;;;5.83;3.40;;;;;;;;;;5059669;28;20167;-59
2022/05/23 07:18:56;;;;;;;7.93;3.73;;;;;;;;;;5057851;28;20538;-59
2022/05/23 07:21:24;;;;;;;7.07;3.80;;;;;;;;;;5051255;28;20048;-59
2022/05/23 07:23:50;;;;;;;7.50;4.23;;;;;;;;;;5051294;28;20131;-58
2022/05/23 07:26:19;;;;;;;8.70;3.90;;;;;;;;;;5057288;28;20072;-59
2022/05/23 07:28:48;;;;;;;11.43;3.70;;;;;;;;;;5056187;28;20445;-59
2022/05/23 07:31:16;;;;;;;6.00;3.70;;;;;;;;;;5067379;28;20044;-59
2022/05/23 07:33:42;;;;;;;8.97;3.73;;;;;;;;;;5064810;28;20040;-58
2022/05/23 07:36:09;;;;;;;11.40;5.30;;;;;;;;;;5065105;28;20501;-59
2022/05/23 07:38:37;;;;;;;7.23;4.40;;;;;;;;;;5052081;28;20523;-59
2022/05/23 07:41:04;;;;;;;8.00;3.47;;;;;;;;;;5051947;28;20095;-59
2022/05/23 07:43:35;;;;;;;9.23;3.83;;;;;;;;;;5064058;28;20139;-59
2022/05/23 07:46:07;;;;;;;5.53;3.37;;;;;;;;;;5062541;28;20056;-59
2022/05/23 07:48:33;;;;;;;6.18;3.47;;;;;;;;;;5051907;28;20040;-59
2022/05/23 07:50:59;;;;;;;8.40;3.73;;;;;;;;;;5063569;28;20049;-59
2022/05/23 08:01:39;;;;;;;6.43;3.60;;;;;;;;;;5055698;28;20489;-59
2022/05/23 08:04:08;;;;;;;5.70;3.57;;;;;;;;;;5065149;28;20048;-59
2022/05/23 08:06:34;;;;;;;7.37;2.97;;;;;;;;;;5051617;28;20056;-59
2022/05/23 08:09:00;;;;;;;9.00;3.70;;;;;;;;;;5050557;28;20052;-59
2022/05/23 08:11:26;;;;;;;7.30;3.00;;;;;;;;;;5058772;28;20041;-59
2022/05/23 08:13:54;;;;;;;7.20;4.07;;;;;;;;;;5060130;28;20033;-59
2022/05/23 08:16:20;;;;;;;5.57;3.40;;;;;;;;;;5057837;28;20083;-59
2022/05/23 08:18:46;;;;;;;7.23;3.17;;;;;;;;;;5060015;28;20091;-59
2022/05/23 08:21:14;;;;;;;10.63;3.70;;;;;;;;;;5069269;28;20095;-59
2022/05/23 08:23:41;;;;;;;6.70;3.97;;;;;;;;;;5070157;28;20143;-59
2022/05/23 08:26:07;;;;;;;8.57;3.27;;;;;;;;;;5070331;28;20593;-59
2022/05/23 08:28:33;;;;;;;7.18;3.63;;;;;;;;;;5070061;28;20037;-59
2022/05/23 08:30:59;;;;;;;6.32;3.83;;;;;;;;;;5069611;28;20517;-59
2022/05/23 08:33:26;;;;;;;8.63;3.58;;;;;;;;;;5070353;28;20122;-59
2022/05/23 08:35:52;;;;;;;7.40;4.07;;;;;;;;;;5070065;28;20044;-59
2022/05/23 08:38:18;;;;;;;4.78;3.13;;;;;;;;;;5069277;28;20071;-59
2022/05/23 08:41:07;;;;;;;9.13;4.18;;;;;;;;;;5059215;28;20418;-59
2022/05/23 08:43:50;;;;;;;8.05;4.35;;;;;;;;;;5064680;28;20074;-59
2022/05/23 08:46:25;;;;;;;8.15;3.70;;;;;;;;;;5069892;28;20398;-59
2022/05/23 08:49:12;;;;;;;8.95;4.63;;;;;;;;;;5069307;28;20080;-59
2022/05/23 08:51:43;;;;;;;6.78;3.88;;;;;;;;;;5058040;28;20279;-59
2022/05/23 08:54:24;;;;;;;7.07;3.60;;;;;;;;;;5069585;28;20101;-59
2022/05/23 08:56:54;;;;;;;8.07;4.00;;;;;;;;;;5052311;28;20059;-59
2022/05/23 08:59:36;;;;;;;7.03;3.97;;;;;;;;;;5049274;28;20080;-59
2022/05/23 09:02:04;;;;;;;9.48;4.50;;;;;;;;;;5049052;28;20522;-59
2022/05/23 09:04:36;;;;;;;8.98;4.00;;;;;;;;;;5049496;28;20276;-59
2022/05/23 09:07:03;;;;;;;4.57;3.23;;;;;;;;;;5049272;28;20078;-59
2022/05/23 09:09:32;;;;;;;6.53;3.80;;;;;;;;;;5048970;28;20294;-59
2022/05/23 09:12:11;;;;;;;7.13;3.28;;;;;;;;;;5049536;28;20391;-59
2022/05/23 09:14:37;;;;;;;8.52;3.80;;;;;;;;;;5049556;28;20061;-59
2022/05/23 09:17:04;;;;;;;5.38;3.70;;;;;;;;;;5048660;28;20041;-59
2022/05/23 09:19:33;;;;;;;6.32;3.33;;;;;;;;;;5049203;28;20419;-59
2022/05/23 09:22:19;;;;;;;8.02;3.97;;;;;;;;;;5049389;28;20048;-59
2022/05/23 09:24:47;;;;;;;6.18;3.22;;;;;;;;;;5049142;28;20459;-59
2022/05/23 09:27:16;;;;;;;10.80;4.07;;;;;;;;;;5067852;28;20514;-59
2022/05/23 09:29:42;;;;;;;5.95;4.05;;;;;;;;;;5068358;28;20429;-59
2022/05/23 09:32:10;;;;;;;6.30;3.38;;;;;;;;;;5067909;28;20049;-59
2022/05/23 09:34:43;;;;;;;5.45;2.90;;;;;;;;;;5068708;28;20497;-59
2022/05/23 09:37:17;;;;;;;7.43;2.95;;;;;;;;;;5068843;28;20093;-59
2022/05/23 09:39:50;;;;;;;7.75;3.00;;;;;;;;;;5068043;28;20056;-59
2022/05/23 09:48:01;;;;;;;8.05;2.80;;;;;;;;;;5068639;28;20053;-59
2022/05/23 09:50:26;;;;;;;5.03;2.70;;;;;;;;;;5068577;28;20051;-59
2022/05/23 09:52:55;;;;;;;8.35;2.88;;;;;;;;;;5068169;28;20049;-59
2022/05/23 09:55:33;;;;;;;5.75;2.40;;;;;;;;;;5064080;28;20570;-59
2022/05/23 09:58:03;;;;;;;4.82;2.40;;;;;;;;;;5048301;28;20651;-59
2022/05/23 10:00:35;;;;;;;6.47;2.10;;;;;;;;;;5048553;28;20072;-59
2022/05/23 10:03:04;;;;;;;2.83;1.85;;;;;;;;;;5048510;28;20053;-59
2022/05/23 10:05:31;;;;;;;4.20;1.83;;;;;;;;;;5047783;28;20049;-59
2022/05/23 10:08:02;;;;;;;9.18;1.98;;;;;;;;;;5048366;28;20049;-59
2022/05/23 10:10:28;;;;;;;4.22;2.13;;;;;;;;;;5053024;28;20055;-59
2022/05/23 10:13:13;;;;;;;3.65;1.75;;;;;;;;;;5059306;28;20083;-59
2022/05/23 10:15:46;;;;;;;3.65;1.70;;;;;;;;;;5057887;28;20517;-59
2022/05/23 10:18:24;;;;;;;5.90;1.80;;;;;;;;;;5059762;28;20075;-59
2022/05/23 10:20:51;;;;;;;3.85;2.22;;;;;;;;;;5048580;28;20056;-58
2022/05/23 10:23:22;;;;;;;5.10;2.20;;;;;;;;;;5056277;28;20049;-59
2022/05/23 10:26:03;;;;;;;5.40;1.93;;;;;;;;;;5054430;28;20117;-59
2022/05/23 10:28:44;;;;;;;4.32;1.90;;;;;;;;;;5069042;28;20424;-58
2022/05/23 10:31:13;;;;;;;4.47;2.05;;;;;;;;;;5061297;28;20036;-59
2022/05/23 10:33:40;;;;;;;3.42;2.20;;;;;;;;;;5058738;28;20052;-59
2022/05/23 10:36:18;;;;;;;4.32;2.03;;;;;;;;;;5067233;28;20040;-59
2022/05/23 10:44:40;;;;;;;5.90;2.10;;;;;;;;;;5062031;28;20044;-59
2022/05/23 10:47:16;;;;;;;5.22;2.08;;;;;;;;;;5056915;28;20098;-59
2022/05/23 10:50:09;;;;;;;5.78;1.95;;;;;;;;;;5046972;28;20507;-59
2022/05/23 10:52:41;;;;;;;5.07;1.80;;;;;;;;;;5054146;28;20037;-59
2022/05/23 10:55:18;;;;;;;6.65;2.40;;;;;;;;;;5063584;28;20048;-59
2022/05/23 10:57:59;;;;;;;6.60;2.47;;;;;;;;;;5061942;28;20511;-59
2022/05/23 11:00:32;;;;;;;3.22;1.70;;;;;;;;;;5066007;28;20464;-59
2022/05/23 11:03:11;;;;;;;8.02;1.88;;;;;;;;;;5065276;28;20049;-59
2022/05/23 11:05:48;;;;;;;5.50;1.67;;;;;;;;;;5053254;28;20052;-59
2022/05/23 11:08:14;;;;;;;4.10;2.20;;;;;;;;;;5060600;28;20438;-59
2022/05/23 11:10:40;;;;;;;3.63;1.90;;;;;;;;;;5063189;28;20048;-59
2022/05/23 11:13:12;;;;;;;3.65;1.50;;;;;;;;;;5058644;28;20395;-59
2022/05/23 11:15:44;;;;;;;7.38;1.80;;;;;;;;;;5066026;28;20110;-59
2022/05/23 11:18:13;;;;;;;4.75;1.80;;;;;;;;;;5049810;28;20075;-59
2022/05/23 11:20:40;;;;;;;4.82;2.10;;;;;;;;;;5048027;28;20049;-59
2022/05/23 11:23:15;;;;;;;4.43;2.10;;;;;;;;;;5056661;28;20053;-59
2022/05/23 11:25:45;;;;;;;4.90;1.98;;;;;;;;;;5051224;28;20072;-59
2022/05/23 11:34:03;;;;;;;6.55;2.63;;;;;;;;;;5061874;28;20049;-60
2022/05/23 11:39:37;;;;;;;6.45;2.17;;;;;;;;;;5052035;28;20060;-59
2022/05/23 11:42:22;;;;;;;4.03;1.85;;;;;;;;;;5061483;28;20135;-59
2022/05/23 11:44:51;;;;;;;3.95;1.63;;;;;;;;;;5047732;28;20045;-59
2022/05/23 11:47:21;;;;;;;4.68;1.95;;;;;;;;;;5053734;28;20040;-60
2022/05/23 11:50:07;;;;;;;5.43;1.20;;;;;;;;;;5058974;28;20532;-59
2022/05/23 11:52:35;;;;;;;4.75;1.48;;;;;;;;;;5051410;28;20114;-59
2022/05/23 11:55:01;;;;;;;3.50;1.52;;;;;;;;;;5055243;28;20110;-59
2022/05/23 11:57:31;;;;;;;4.07;1.75;;;;;;;;;;5061674;28;20490;-59
2022/05/23 12:00:01;;;;;;;3.45;1.73;;;;;;;;;;5062729;28;20041;-59
2022/05/23 12:02:28;;;;;;;5.38;2.25;;;;;;;;;;5050697;28;20052;-59
2022/05/23 12:04:56;;;;;;;5.50;2.00;;;;;;;;;;5056851;28;20052;-59
2022/05/23 12:07:28;;;;;;;5.75;1.80;;;;;;;;;;5052314;28;20119;-58
2022/05/23 12:09:54;;;;;;;3.58;2.10;;;;;;;;;;5067746;28;20036;-58
2022/05/23 12:12:41;;;;;;;5.40;2.25;;;;;;;;;;5054420;28;20056;-59
2022/05/23 12:15:07;;;;;;;6.43;2.22;;;;;;;;;;5052047;28;20048;-59
2022/05/23 12:17:33;;;;;;;8.60;2.50;;;;;;;;;;5057515;28;20479;-59
2022/05/23 12:20:06;;;;;;;7.32;2.50;;;;;;;;;;5059276;28;20048;-58
2022/05/23 12:22:32;;;;;;;;;;;;;;;;;;5059771;28;20131;-59
2022/05/23 12:25:07;;;;;;;6.43;3.38;;;;;;;;;;5065565;28;19982;-59
2022/05/23 12:27:38;;;;;;;7.10;3.47;;;;;;;;;;5051180;28;20094;-59
2022/05/23 12:30:25;;;;;;;6.55;3.10;;;;;;;;;;5051000;28;20384;-59
2022/05/23 12:32:55;;;;;;;6.32;3.08;;;;;;;;;;5055270;28;20041;-59
2022/05/23 12:35:28;;;;;;;9.65;3.70;;;;;;;;;;5054492;28;20181;-59
2022/05/23 12:37:56;;;;;;;8.52;4.15;;;;;;;;;;5057331;28;20041;-59
2022/05/23 12:40:33;;;;;;;7.68;3.08;;;;;;;;;;5064811;28;20048;-59
2022/05/23 12:43:14;;;;;;;7.22;3.33;;;;;;;;;;5054501;28;20056;-59
2022/05/23 12:45:43;;;;;;;6.63;4.00;;;;;;;;;;5058024;28;20088;-59
2022/05/23 12:48:27;;;;;;;9.65;4.05;;;;;;;;;;5064977;28;20040;-59
2022/05/23 12:51:02;;;;;;;6.70;4.28;;;;;;;;;;5059290;28;20059;-58
2022/05/23 12:53:47;;;;;;;13.95;4.75;;;;;;;;;;5060366;28;20052;-58
2022/05/23 12:56:18;;;;;;;8.93;4.00;;;;;;;;;;5054967;28;20090;-59
2022/05/23 12:58:50;;;;;;;6.32;4.25;;;;;;;;;;5059458;28;20094;-59
2022/05/23 13:01:22;;;;;;;8.35;4.75;;;;;;;;;;5048713;28;20351;-58
2022/05/23 13:04:03;;;;;;;6.47;4.32;;;;;;;;;;5059086;28;20124;-58
2022/05/23 13:06:44;;;;;;;9.63;4.43;;;;;;;;;;5065914;28;20049;-59
2022/05/23 13:09:23;;;;;;;5.82;4.22;;;;;;;;;;5055349;28;20044;-58
2022/05/23 13:11:52;;;;;;;7.03;4.50;;;;;;;;;;5057845;28;20045;-59
2022/05/23 13:14:18;;;;;;;7.57;4.03;;;;;;;;;;5049458;28;20410;-58
2022/05/23 13:16:52;;;;;;;8.80;4.90;;;;;;;;;;5060202;28;20483;-58
2022/05/23 13:22:06;;;;;;;7.05;4.75;;;;;;;;;;5048570;28;20048;-59
2022/05/23 13:24:53;;;;;;;10.38;4.35;;;;;;;;;;5049740;28;20059;-59
2022/05/23 13:27:39;;;;;;;6.50;4.20;;;;;;;;;;5056991;28;20070;-59
2022/05/23 13:30:07;;;;;;;7.45;4.65;;;;;;;;;;5042656;28;20041;-59
2022/05/23 13:32:33;;;;;;;12.85;4.35;;;;;;;;;;5049450;28;20049;-59
2022/05/23 13:35:00;;;;;;;8.95;4.78;;;;;;;;;;5051745;28;20123;-59
2022/05/23 13:37:26;;;;;;;7.35;4.20;;;;;;;;;;5052982;28;20048;-59
2022/05/23 13:39:52;;;;;;;7.70;4.80;;;;;;;;;;5055269;28;20074;-59
2022/05/23 13:42:20;;;;;;;7.38;4.13;;;;;;;;;;5056927;28;20087;-59
2022/05/23 13:44:46;;;;;;;7.03;3.67;;;;;;;;;;5055352;28;20044;-59
2022/05/23 13:47:14;;;;;;;10.40;4.15;;;;;;;;;;5055277;28;21646;-59
2022/05/23 13:49:44;;;;;;;8.05;3.90;;;;;;;;;;5055032;28;20550;-59
2022/05/23 13:52:20;;;;;;;9.27;4.25;;;;;;;;;;5052641;28;20633;-59
2022/05/23 13:54:50;;;;;;;7.28;3.58;;;;;;;;;;5054070;28;20044;-59
2022/05/23 13:57:22;;;;;;;10.45;3.90;;;;;;;;;;5055071;28;20056;-59
2022/05/23 13:59:54;;;;;;;6.15;3.92;;;;;;;;;;5060800;28;20097;-59
2022/05/23 14:02:21;;;;;;;11.38;5.28;;;;;;;;;;5058034;28;20102;-59
2022/05/23 14:04:48;;;;;;;10.02;4.03;;;;;;;;;;5052875;28;20453;-59
2022/05/23 14:07:15;;;;;;;7.57;4.43;;;;;;;;;;5048071;28;20068;-59
2022/05/23 14:09:49;;;;;;;13.70;4.50;;;;;;;;;;5058054;28;20806;-59
2022/05/23 14:12:21;;;;;;;5.95;3.92;;;;;;;;;;5048638;28;20083;-59
2022/05/23 14:14:59;;;;;;;6.32;4.22;;;;;;;;;;5056131;28;20577;-58
2022/05/23 14:17:25;;;;;;;8.38;4.50;;;;;;;;;;5055712;28;20048;-59
2022/05/23 14:20:11;;;;;;;7.60;3.90;;;;;;;;;;5061904;28;20041;-59
2022/05/23 14:22:37;;;;;;;6.90;3.70;;;;;;;;;;5057113;28;20071;-59
2022/05/23 14:25:15;;;;;;;7.15;3.95;;;;;;;;;;5065742;28;20410;-59
2022/05/23 14:27:51;;;;;;;10.48;4.15;;;;;;;;;;5052966;28;20051;-59
2022/05/23 14:30:30;;;;;;;5.95;3.65;;;;;;;;;;5062409;28;20090;-59
2022/05/23 14:33:00;;;;;;;9.45;3.55;;;;;;;;;;5065732;28;20052;-59
2022/05/23 14:35:32;;;;;;;6.80;3.78;;;;;;;;;;5064666;28;20040;-59
2022/05/23 14:37:59;;;;;;;8.95;3.70;;;;;;;;;;5061678;28;20414;-59
2022/05/23 14:40:33;;;;;;;8.10;4.03;;;;;;;;;;5048012;28;20057;-59
2022/05/23 14:42:59;;;;;;;6.85;3.33;;;;;;;;;;5053484;28;20068;-59
2022/05/23 14:45:29;;;;;;;5.57;2.72;;;;;;;;;;5050014;28;20049;-59
2022/05/23 14:48:07;;;;;;;4.57;3.28;;;;;;;;;;5052310;28;20041;-58
2022/05/23 14:50:45;;;;;;;8.05;2.90;;;;;;;;;;5055791;28;20414;-59
2022/05/23 14:56:11;;;;;;;11.10;3.83;;;;;;;;;;5054534;28;20040;-59
2022/05/23 15:01:24;;;;;;;9.43;2.90;;;;;;;;;;5058264;28;20107;-58
2022/05/23 15:03:52;;;;;;;9.77;3.65;;;;;;;;;;5065910;28;20529;-59
2022/05/23 15:06:19;;;;;;;8.35;3.28;;;;;;;;;;5057012;28;20095;-58
2022/05/23 15:08:46;;;;;;;6.85;3.03;;;;;;;;;;5056522;28;20052;-59
2022/05/23 15:11:20;;;;;;;6.68;3.13;;;;;;;;;;5057860;28;20119;-58
2022/05/23 15:13:47;;;;;;;9.32;3.08;;;;;;;;;;5052725;28;20037;-58
2022/05/23 15:16:18;;;;;;;6.40;3.05;;;;;;;;;;5050567;28;20123;-58
2022/05/23 15:18:44;;;;;;;9.88;3.38;;;;;;;;;;5053591;28;20049;-58
2022/05/23 15:21:11;;;;;;;7.97;2.90;;;;;;;;;;5056783;28;20037;-58
2022/05/23 15:23:38;;;;;;;6.95;3.60;;;;;;;;;;5062471;28;20052;-58
2022/05/23 15:26:05;;;;;;;9.48;3.22;;;;;;;;;;5053043;28;20048;-58
2022/05/23 15:28:31;;;;;;;6.90;3.13;;;;;;;;;;5067772;28;20056;-59
2022/05/23 15:30:58;;;;;;;8.98;3.28;;;;;;;;;;5051008;28;20114;-59
2022/05/23 15:33:24;;;;;;;3.95;2.70;;;;;;;;;;5054947;28;20124;-59
2022/05/23 15:35:50;;;;;;;7.38;2.97;;;;;;;;;;5052330;28;20045;-59
2022/05/23 15:38:16;;;;;;;4.70;2.50;;;;;;;;;;5050285;28;20140;-59
2022/05/23 15:40:44;;;;;;;8.00;2.92;;;;;;;;;;5050443;28;20164;-58
2022/05/23 15:43:10;;;;;;;6.05;2.65;;;;;;;;;;5051761;28;20103;-59
2022/05/23 15:45:40;;;;;;;10.38;3.17;;;;;;;;;;5051121;28;20052;-58
2022/05/23 15:48:07;;;;;;;4.43;2.65;;;;;;;;;;5051573;28;20049;-59
2022/05/23 15:50:34;;;;;;;7.70;2.67;;;;;;;;;;5051529;28;20056;-59
2022/05/23 15:53:00;;;;;;;6.60;2.67;;;;;;;;;;5050110;28;20041;-59
2022/05/23 15:55:28;;;;;;;9.15;2.90;;;;;;;;;;5051207;28;20045;-59
2022/05/23 15:57:55;;;;;;;8.43;2.90;;;;;;;;;;5051337;28;20495;-59
2022/05/23 16:00:23;;;;;;;8.85;3.05;;;;;;;;;;5050957;28;20878;-59
2022/05/23 16:02:51;;;;;;;6.18;2.80;;;;;;;;;;5051263;28;20081;-59
2022/05/23 16:05:17;;;;;;;8.65;3.42;;;;;;;;;;5049873;28;20107;-59
2022/05/23 16:07:44;;;;;;;7.70;2.72;;;;;;;;;;5051147;28;20067;-59